createdAt,value
2023-04-07T00:01:26.598Z,100863.59
2023-04-07T00:05:15.898Z,100864.81
2023-04-07T00:08:57.065Z,100860.82
2023-04-07T00:12:39.390Z,100865.15
2023-04-07T00:16:10.248Z,100862.56
2023-04-07T00:19:44.505Z,100860.84
2023-04-07T00:23:32.861Z,100863.60
2023-04-07T00:27:21.973Z,100863.09
2023-04-07T00:30:47.145Z,100863.77
2023-04-07T00:34:36.353Z,100866.52
2023-04-07T00:38:25.521Z,100862.73
2023-04-07T00:42:08.960Z,100860.46
2023-04-07T00:45:57.924Z,100857.51
2023-04-07T00:49:46.087Z,100857.52
2023-04-07T00:53:26.534Z,100852.99
2023-04-07T00:57:01.165Z,100846.78
2023-04-07T01:00:24.534Z,100842.61
2023-04-07T01:04:12.812Z,100840.02
2023-04-07T01:07:52.338Z,100839.14
2023-04-07T01:11:18.253Z,100833.24
2023-04-07T01:14:47.150Z,100831.19
2023-04-07T01:18:38.974Z,100831.70
2023-04-07T01:22:13.500Z,100826.52
2023-04-07T01:25:52.022Z,100826.34
2023-04-07T01:29:14.465Z,100827.23
2023-04-07T01:32:47.907Z,100825.14
2023-04-07T01:36:17.807Z,100819.98
2023-04-07T01:43:32.576Z,100813.91
2023-04-07T01:47:13.844Z,100810.63
2023-04-07T01:50:54.326Z,100804.91
2023-04-07T01:54:31.113Z,100803.35
2023-04-07T01:58:20.081Z,100805.09
2023-04-07T02:02:00.968Z,100800.77
2023-04-07T02:05:51.566Z,100803.70
2023-04-07T02:09:19.427Z,100805.45
2023-04-07T02:12:58.050Z,100799.92
2023-04-07T02:16:32.753Z,100795.95
2023-04-07T02:20:14.886Z,100790.42
2023-04-07T02:23:57.246Z,100789.38
2023-04-07T02:27:46.366Z,100786.79
2023-04-07T02:31:17.018Z,100786.94
2023-04-07T02:35:05.558Z,100782.96
2023-04-07T02:38:45.922Z,100784.69
2023-04-07T02:42:27.409Z,100780.20
2023-04-07T02:46:11.858Z,100776.56
2023-04-07T02:49:45.788Z,100771.03
2023-04-07T02:53:25.225Z,100769.30
2023-04-07T02:56:30.783Z,100760.84
2023-04-07T03:00:03.258Z,100763.27
2023-04-07T03:03:45.409Z,100759.80
2023-04-07T03:07:23.619Z,100757.90
2023-04-07T03:10:36.797Z,100751.84
2023-04-07T03:14:01.211Z,100749.94
2023-04-07T03:17:39.820Z,100745.79
2023-04-07T03:21:29.021Z,100745.97
2023-04-07T03:24:54.091Z,100745.63
2023-04-07T03:28:29.127Z,100743.36
2023-04-07T03:31:56.262Z,100745.27
2023-04-07T03:35:45.469Z,100742.84
2023-04-07T03:39:34.726Z,100743.71
2023-04-07T03:42:31.267Z,100747.00
2023-04-07T03:46:13.897Z,100746.66
2023-04-07T03:50:03.180Z,100741.30
2023-04-07T03:53:21.499Z,100740.08
2023-04-07T03:56:55.311Z,100744.05
2023-04-07T04:00:36.700Z,100745.07
2023-04-07T04:04:10.819Z,100744.02
2023-04-07T04:07:41.779Z,100743.34
2023-04-07T04:11:24.481Z,100747.33
2023-04-07T04:14:21.865Z,100750.63
2023-04-07T04:17:36.948Z,100754.45
2023-04-07T04:21:12.762Z,100756.20
2023-04-07T04:25:02.262Z,100756.73
2023-04-07T04:28:49.074Z,100762.97
2023-04-07T04:32:14.191Z,100763.67
2023-04-07T04:35:50.376Z,100769.23
2023-04-07T04:39:31.582Z,100766.30
2023-04-07T04:43:19.844Z,100765.09
2023-04-07T04:46:49.081Z,100762.50
2023-04-07T04:50:27.178Z,100762.86
2023-04-07T04:54:03.092Z,100764.23
2023-04-07T04:57:40.226Z,100763.38
2023-04-07T05:01:02.875Z,100763.58
2023-04-07T05:04:25.463Z,100763.05
2023-04-07T05:08:14.795Z,100765.81
2023-04-07T05:11:55.175Z,100763.58
2023-04-07T05:15:31.532Z,100764.97
2023-04-07T05:18:57.268Z,100768.24
2023-04-07T05:22:46.834Z,100769.28
2023-04-07T05:26:37.044Z,100770.48
2023-04-07T05:30:16.981Z,100769.45
2023-04-07T05:33:51.175Z,100771.36
2023-04-07T05:37:32.012Z,100774.12
2023-04-07T05:40:55.116Z,100770.33
2023-04-07T05:43:56.296Z,100767.56
2023-04-07T05:46:45.145Z,100769.98
2023-04-07T05:49:46.897Z,100773.61
2023-04-07T05:52:44.044Z,100766.17
2023-04-07T05:55:34.237Z,100767.04
2023-04-07T05:58:17.359Z,100765.30
2023-04-07T06:01:34.047Z,100766.34
2023-04-07T06:04:22.973Z,100765.64
2023-04-07T06:07:29.606Z,100765.62
2023-04-07T06:10:13.650Z,100765.80
2023-04-07T06:13:12.848Z,100768.55
2023-04-07T06:15:52.485Z,100771.84
2023-04-07T06:18:36.331Z,100774.25
2023-04-07T06:21:35.830Z,100774.08
2023-04-07T06:24:33.392Z,100770.96
2023-04-07T06:27:31.977Z,100767.33
2023-04-07T06:30:32.821Z,100767.52
2023-04-07T06:33:16.053Z,100766.46
2023-04-07T06:36:17.150Z,100769.23
2023-04-07T06:39:04.004Z,100773.04
2023-04-07T06:42:01.349Z,100769.92
2023-04-07T06:45:02.492Z,100770.27
2023-04-07T06:47:55.688Z,100772.69
2023-04-07T06:50:56.293Z,100771.48
2023-04-07T06:53:52.214Z,100770.45
2023-04-07T06:56:27.375Z,100769.58
2023-04-07T06:59:19.175Z,100770.27
2023-04-07T07:02:08.293Z,100766.83
2023-04-07T07:04:59.557Z,100767.69
2023-04-07T07:08:11.041Z,100765.63
2023-04-07T07:11:04.703Z,100762.69
2023-04-07T07:13:56.227Z,100761.14
2023-04-07T07:16:43.575Z,100761.31
2023-04-07T07:19:20.623Z,100763.89
2023-04-07T07:22:08.255Z,100766.47
2023-04-07T07:25:10.729Z,100766.30
2023-04-07T07:28:02.762Z,100764.36
2023-04-07T07:30:40.254Z,100767.66
2023-04-07T07:33:27.924Z,100773.02
2023-04-07T07:36:15.113Z,100773.17
2023-04-07T07:38:59.345Z,100776.11
2023-04-07T07:41:50.915Z,100778.00
2023-04-07T07:44:37.267Z,100783.19
2023-04-07T07:47:37.834Z,100784.41
2023-04-07T07:51:27.373Z,100784.74
2023-04-07T07:55:16.565Z,100788.19
2023-04-07T07:58:59.456Z,100785.92
2023-04-07T08:02:31.675Z,100786.96
2023-04-07T08:06:21.033Z,100783.33
2023-04-07T08:10:03.017Z,100782.82
2023-04-07T08:13:51.167Z,100782.63
2023-04-07T08:17:40.331Z,100786.44
2023-04-07T08:20:40.046Z,100785.90
2023-04-07T08:24:29.016Z,100786.23
2023-04-07T08:28:07.957Z,100784.34
2023-04-07T08:31:48.699Z,100786.20
2023-04-07T08:34:51.907Z,100786.88
2023-04-07T08:38:21.120Z,100783.21
2023-04-07T08:41:45.701Z,100783.00
2023-04-07T08:44:36.607Z,100780.34
2023-04-07T08:47:44.283Z,100783.59
2023-04-07T08:51:10.444Z,100784.24
2023-04-07T08:54:59.501Z,100790.45
2023-04-07T08:58:46.321Z,100786.78
2023-04-07T09:02:11.553Z,100787.03
2023-04-07T09:06:00.898Z,100786.45
2023-04-07T09:09:49.986Z,100788.66
2023-04-07T09:13:39.162Z,100785.88
2023-04-07T09:17:15.304Z,100781.19
2023-04-07T09:20:33.037Z,100780.97
2023-04-07T09:24:11.251Z,100777.31
2023-04-07T09:27:51.725Z,100773.82
2023-04-07T09:31:39.965Z,100773.64
2023-04-07T09:35:29.144Z,100769.09
2023-04-07T09:39:09.813Z,100769.80
2023-04-07T09:42:37.336Z,100764.98
2023-04-07T09:46:27.188Z,100767.58
2023-04-07T09:50:06.861Z,100767.79
2023-04-07T09:53:56.500Z,100765.53
2023-04-07T09:57:19.956Z,100767.47
2023-04-07T10:00:58.230Z,100773.55
2023-04-07T10:04:17.892Z,100774.02
2023-04-07T10:07:43.678Z,100770.89
2023-04-07T10:11:27.421Z,100769.16
2023-04-07T10:15:07.647Z,100771.73
2023-04-07T10:18:02.699Z,100772.61
2023-04-07T10:21:51.786Z,100773.20
2023-04-07T10:25:20.138Z,100772.37
2023-04-07T10:28:59.678Z,100775.52
2023-04-07T10:32:20.220Z,100776.96
2023-04-07T10:35:59.738Z,100776.13
2023-04-07T10:39:40.599Z,100771.81
2023-04-07T10:43:38.897Z,100771.98
2023-04-07T10:47:28.165Z,100774.73
2023-04-07T10:51:20.100Z,100779.06
2023-04-07T10:55:00.864Z,100780.63
2023-04-07T10:58:54.339Z,100779.40
2023-04-07T11:01:59.853Z,100775.08
2023-04-07T11:04:49.317Z,100776.14
2023-04-07T11:08:34.998Z,100775.42
2023-04-07T11:12:39.370Z,100776.94
2023-04-07T11:16:28.664Z,100776.85
2023-04-07T11:19:49.223Z,100776.66
2023-04-07T11:23:34.323Z,100775.59
2023-04-07T11:27:08.954Z,100771.39
2023-04-07T11:30:49.517Z,100769.47
2023-04-07T11:34:34.682Z,100768.80
2023-04-07T11:38:06.480Z,100767.67
2023-04-07T11:41:55.727Z,100765.92
2023-04-07T11:45:37.635Z,100758.08
2023-04-07T11:49:16.761Z,100755.81
2023-04-07T11:53:06.137Z,100757.99
2023-04-07T11:56:41.484Z,100751.04
2023-04-07T12:00:29.638Z,100752.59
2023-04-07T12:04:21.642Z,100751.89
2023-04-07T12:07:59.578Z,100752.46
2023-04-07T12:11:41.474Z,100747.66
2023-04-07T12:14:59.207Z,100749.23
2023-04-07T12:18:23.084Z,100746.13
2023-04-07T12:21:27.709Z,100747.30
2023-04-07T12:24:33.072Z,100746.62
2023-04-07T12:27:55.213Z,100746.02
2023-04-07T12:31:01.156Z,100748.56
2023-04-07T12:34:05.854Z,100750.13
2023-04-07T12:36:57.193Z,100750.56
2023-04-07T12:39:53.832Z,100750.61
2023-04-07T12:43:23.966Z,100745.30
2023-04-07T12:46:49.885Z,100747.45
2023-04-07T12:50:04.974Z,100744.16
2023-04-07T12:53:13.987Z,100747.77
2023-04-07T12:56:16.459Z,100741.30
2023-04-07T12:59:32.351Z,100743.30
2023-04-07T13:02:46.738Z,100742.55
2023-04-07T13:05:35.151Z,100740.46
2023-04-07T13:08:32.631Z,100739.94
2023-04-07T13:11:55.154Z,100743.00
2023-04-07T13:15:05.391Z,100740.58
2023-04-07T13:18:27.055Z,100738.52
2023-04-07T13:21:54.910Z,100741.81
2023-04-07T13:25:19.509Z,100739.21
2023-04-07T13:28:25.152Z,100741.05
2023-04-07T13:31:39.101Z,100739.77
2023-04-07T13:35:05.125Z,100734.70
2023-04-07T13:38:45.806Z,100732.58
2023-04-07T13:42:16.838Z,100732.75
2023-04-07T13:45:42.297Z,100732.23
2023-04-07T13:48:56.632Z,100729.16
2023-04-07T13:52:45.734Z,100726.91
2023-04-07T13:56:11.403Z,100726.15
2023-04-07T13:59:53.723Z,100722.42
2023-04-07T14:03:35.969Z,100721.50
2023-04-07T14:07:15.572Z,100721.81
2023-04-07T14:10:44.678Z,100723.52
2023-04-07T14:14:33.944Z,100722.80
2023-04-07T14:18:12.150Z,100722.30
2023-04-07T14:22:01.450Z,100720.25
2023-04-07T14:25:50.766Z,100720.95
2023-04-07T14:29:40.071Z,100720.87
2023-04-07T14:33:12.463Z,100717.46
2023-04-07T14:36:45.036Z,100715.77
2023-04-07T14:40:34.306Z,100717.36
2023-04-07T14:44:23.574Z,100717.32
2023-04-07T14:48:12.776Z,100719.84
2023-04-07T14:52:02.030Z,100717.52
2023-04-07T14:55:36.471Z,100719.20
2023-04-07T14:59:25.822Z,100722.17
2023-04-07T15:03:15.220Z,100719.60
2023-04-07T15:06:59.554Z,100719.29
2023-04-07T15:10:48.833Z,100722.61
2023-04-07T15:14:38.101Z,100720.64
2023-04-07T15:18:27.345Z,100725.54
2023-04-07T15:22:16.349Z,100724.55
2023-04-07T15:26:05.619Z,100722.88
2023-04-07T15:29:54.988Z,100721.86
2023-04-07T15:33:44.208Z,100726.23
2023-04-07T15:37:23.602Z,100727.27
2023-04-07T15:41:01.416Z,100726.45
2023-04-07T15:44:50.584Z,100726.97
2023-04-07T15:48:39.810Z,100728.35
2023-04-07T15:52:21.759Z,100729.19
2023-04-07T15:56:10.921Z,100731.41
2023-04-07T16:00:00.207Z,100733.52
2023-04-07T16:03:49.754Z,100734.05
2023-04-07T16:07:39.552Z,100736.28
2023-04-07T16:11:28.933Z,100737.50
2023-04-07T16:15:32.399Z,100734.02
2023-04-07T16:19:25.863Z,100736.07
2023-04-07T16:23:15.203Z,100735.02
2023-04-07T16:27:04.640Z,100735.35
2023-04-07T16:30:54.127Z,100734.64
2023-04-07T16:34:43.304Z,100732.44
2023-04-07T16:38:32.681Z,100732.17
2023-04-07T16:42:20.755Z,100734.42
2023-04-07T16:45:58.780Z,100735.35
2023-04-07T16:49:37.778Z,100737.62
2023-04-07T16:53:21.197Z,100739.54
2023-04-07T16:56:59.427Z,100738.33
2023-04-07T17:00:48.801Z,100739.36
2023-04-07T17:04:38.036Z,100735.16
2023-04-07T17:08:27.229Z,100741.06
2023-04-07T17:12:16.508Z,100742.98
2023-04-07T17:16:05.786Z,100739.07
2023-04-07T17:19:56.842Z,100741.69
2023-04-07T17:23:14.452Z,100744.13
2023-04-07T17:26:49.705Z,100748.27
2023-04-07T17:30:38.850Z,100753.33
2023-04-07T17:34:28.230Z,100754.91
2023-04-07T17:38:07.552Z,100760.27
2023-04-07T17:41:42.281Z,100758.73
2023-04-07T17:45:22.548Z,100765.30
2023-04-07T17:49:11.618Z,100763.10
2023-04-07T17:53:00.887Z,100766.76
2023-04-07T17:56:50.160Z,100770.41
2023-04-07T18:00:39.941Z,100770.90
2023-04-07T18:04:20.014Z,100772.48
2023-04-07T18:07:56.482Z,100778.04
2023-04-07T18:11:45.771Z,100777.34
2023-04-07T18:15:20.148Z,100780.65
2023-04-07T18:19:09.341Z,100781.54
2023-04-07T18:22:58.618Z,100782.39
2023-04-07T18:26:48.029Z,100782.73
2023-04-07T18:30:36.032Z,100783.61
2023-04-07T18:34:25.228Z,100786.06
2023-04-07T18:38:14.485Z,100791.94
2023-04-07T18:42:03.614Z,100794.02
2023-04-07T18:44:57.112Z,100793.16
2023-04-07T18:48:46.384Z,100790.04
2023-04-07T18:52:27.065Z,100790.36
2023-04-07T18:56:16.172Z,100789.84
2023-04-07T18:59:55.667Z,100790.50
2023-04-07T19:03:44.024Z,100790.33
2023-04-07T19:07:26.695Z,100789.13
2023-04-07T19:11:09.053Z,100786.69
2023-04-07T19:14:48.401Z,100787.21
2023-04-07T19:18:31.936Z,100784.98
2023-04-07T19:22:21.149Z,100787.91
2023-04-07T19:26:10.337Z,100788.09
2023-04-07T19:29:59.769Z,100793.31
2023-04-07T19:33:47.949Z,100794.73
2023-04-07T19:37:27.588Z,100792.88
2023-04-07T19:41:16.501Z,100792.53
2023-04-07T19:44:58.497Z,100794.23
2023-04-07T19:48:47.880Z,100790.77
2023-04-07T19:52:37.153Z,100795.98
2023-04-07T19:56:14.711Z,100790.45
2023-04-07T19:59:40.065Z,100791.67
2023-04-07T20:03:29.771Z,100788.89
2023-04-07T20:07:13.184Z,100788.70
2023-04-07T20:11:02.556Z,100789.21
2023-04-07T20:14:14.455Z,100791.44
2023-04-07T20:17:43.295Z,100792.66
2023-04-07T20:21:26.999Z,100795.77
2023-04-07T20:24:57.835Z,100800.78
2023-04-07T20:28:24.604Z,100800.60
2023-04-07T20:32:13.848Z,100804.77
2023-04-07T20:35:57.085Z,100798.52
2023-04-07T20:39:46.459Z,100794.90
2023-04-07T20:43:28.487Z,100792.66
2023-04-07T20:47:09.036Z,100788.31
2023-04-07T20:51:07.005Z,100787.64
2023-04-07T20:54:56.176Z,100784.55
2023-04-07T20:58:45.360Z,100786.80
2023-04-07T21:02:34.981Z,100792.67
2023-04-07T21:06:24.414Z,100787.83
2023-04-07T21:10:14.704Z,100785.06
2023-04-07T21:13:53.017Z,100782.09
2023-04-07T21:17:27.598Z,100777.06
2023-04-07T21:21:19.660Z,100770.83
2023-04-07T21:24:51.529Z,100768.23
2023-04-07T21:28:41.132Z,100766.34
2023-04-07T21:32:47.929Z,100769.09
2023-04-07T21:36:12.744Z,100766.52
2023-04-07T21:39:43.242Z,100766.51
2023-04-07T21:43:11.210Z,100773.77
2023-04-07T21:47:00.590Z,100772.88
2023-04-07T21:50:43.105Z,100773.56
2023-04-07T21:54:25.415Z,100777.72
2023-04-07T21:58:03.324Z,100775.30
2023-04-07T22:01:42.406Z,100770.77
2023-04-07T22:05:30.410Z,100763.83
2023-04-07T22:09:11.381Z,100763.30
2023-04-07T22:12:45.598Z,100761.73
2023-04-07T22:16:22.869Z,100761.52
2023-04-07T22:19:46.361Z,100755.44
2023-04-07T22:23:34.611Z,100752.48
2023-04-07T22:27:13.639Z,100752.84
2023-04-07T22:31:03.078Z,100749.17
2023-04-07T22:34:52.205Z,100751.59
2023-04-07T22:38:41.383Z,100748.45
2023-04-07T22:42:21.359Z,100751.91
2023-04-07T22:46:09.351Z,100750.36
2023-04-07T22:49:33.741Z,100755.89
2023-04-07T22:53:13.180Z,100757.98
2023-04-07T22:56:54.744Z,100764.01
2023-04-07T23:00:43.679Z,100771.10
2023-04-07T23:04:32.885Z,100768.48
2023-04-07T23:08:22.021Z,100773.66
2023-04-07T23:12:05.264Z,100781.06
2023-04-07T23:15:32.979Z,100783.06
2023-04-07T23:19:15.652Z,100778.50
2023-04-07T23:23:04.881Z,100774.79
2023-04-07T23:26:53.989Z,100780.83
2023-04-07T23:30:37.024Z,100774.52
2023-04-07T23:34:25.106Z,100777.07
2023-04-07T23:37:51.134Z,100775.12
2023-04-07T23:41:16.857Z,100774.37
2023-04-07T23:45:05.985Z,100774.35
2023-04-07T23:48:55.043Z,100776.41
2023-04-07T23:52:42.901Z,100781.23
2023-04-07T23:56:31.192Z,100787.45
